createdAt,value
2017-06-03T00:00:26.182Z,15.50
2017-06-03T00:02:52.628Z,15.50
2017-06-03T00:05:19.133Z,15.40
2017-06-03T00:07:46.295Z,15.40
2017-06-03T00:10:13.459Z,15.30
2017-06-03T00:12:39.880Z,15.30
2017-06-03T00:15:06.977Z,15.20
2017-06-03T00:17:33.466Z,15.20
2017-06-03T00:19:59.902Z,15.20
2017-06-03T00:22:27.533Z,15.10
2017-06-03T00:24:54.060Z,15.00
2017-06-03T00:27:20.516Z,15.00
2017-06-03T00:29:46.979Z,15.00
2017-06-03T00:32:13.532Z,15.00
2017-06-03T00:34:40.271Z,14.90
2017-06-03T00:37:06.812Z,14.90
2017-06-03T00:39:33.272Z,14.90
2017-06-03T00:42:14.594Z,14.80
2017-06-03T00:44:41.024Z,14.80
2017-06-03T00:47:07.918Z,14.80
2017-06-03T00:49:34.335Z,14.70
2017-06-03T00:52:00.765Z,14.70
2017-06-03T00:54:27.287Z,14.60
2017-06-03T00:56:54.149Z,14.60
2017-06-03T00:59:20.583Z,14.50
2017-06-03T01:01:46.983Z,14.50
2017-06-03T01:04:13.842Z,14.40
2017-06-03T01:06:40.589Z,14.40
2017-06-03T01:09:07.576Z,14.40
2017-06-03T01:11:33.995Z,14.30
2017-06-03T01:14:01.152Z,14.20
2017-06-03T01:16:28.232Z,14.20
2017-06-03T01:18:55.431Z,14.20
2017-06-03T01:21:21.830Z,14.10
2017-06-03T01:23:48.248Z,14.10
2017-06-03T01:26:14.676Z,14.10
2017-06-03T01:28:41.841Z,14.10
2017-06-03T01:31:09.044Z,14.10
2017-06-03T01:33:35.571Z,14.10
2017-06-03T01:36:02.789Z,14.10
2017-06-03T01:38:29.809Z,14.10
2017-06-03T01:40:56.279Z,14.10
2017-06-03T01:43:23.482Z,14.00
2017-06-03T01:45:49.950Z,14.00
2017-06-03T01:48:16.435Z,14.00
2017-06-03T01:50:43.106Z,14.00
2017-06-03T01:53:09.571Z,14.00
2017-06-03T01:55:36.011Z,14.00
2017-06-03T01:58:02.485Z,13.90
2017-06-03T02:00:28.943Z,13.90
2017-06-03T02:02:56.127Z,13.90
2017-06-03T02:05:22.548Z,13.90
2017-06-03T02:07:48.976Z,13.90
2017-06-03T02:10:15.384Z,13.80
2017-06-03T02:12:42.564Z,13.80
2017-06-03T02:15:09.781Z,13.80
2017-06-03T02:17:36.217Z,13.70
2017-06-03T02:20:02.694Z,13.70
2017-06-03T02:22:29.218Z,13.80
2017-06-03T02:24:55.658Z,13.70
2017-06-03T02:27:22.833Z,13.70
2017-06-03T02:29:51.032Z,13.70
2017-06-03T02:32:18.211Z,13.80
2017-06-03T02:34:44.646Z,13.80
2017-06-03T02:37:11.820Z,13.80
2017-06-03T02:39:38.995Z,13.80
2017-06-03T02:42:06.155Z,13.80
2017-06-03T02:44:32.953Z,13.80
2017-06-03T02:46:59.380Z,13.80
2017-06-03T02:49:25.860Z,13.80
2017-06-03T02:51:52.300Z,13.80
2017-06-03T02:54:19.480Z,13.80
2017-06-03T02:56:47.157Z,13.80
2017-06-03T02:59:14.325Z,13.80
2017-06-03T03:01:41.714Z,13.80
2017-06-03T03:04:08.890Z,13.80
2017-06-03T03:06:35.451Z,13.70
2017-06-03T03:09:02.168Z,13.70
2017-06-03T03:11:28.668Z,13.70
2017-06-03T03:13:55.942Z,13.70
2017-06-03T03:16:22.430Z,13.70
2017-06-03T03:18:48.848Z,13.70
2017-06-03T03:21:16.379Z,13.80
2017-06-03T03:23:43.587Z,13.80
2017-06-03T03:26:10.167Z,13.80
2017-06-03T03:28:37.569Z,13.90
2017-06-03T03:31:04.044Z,13.90
2017-06-03T03:33:30.500Z,14.00
2017-06-03T03:35:56.940Z,14.10
2017-06-03T03:38:23.362Z,14.20
2017-06-03T03:40:50.628Z,14.40
2017-06-03T03:43:17.807Z,14.50
2017-06-03T03:45:45.321Z,14.60
2017-06-03T03:48:12.307Z,14.60
2017-06-03T03:50:38.729Z,14.80
2017-06-03T03:53:05.172Z,14.90
2017-06-03T03:55:31.622Z,15.00
2017-06-03T03:57:58.778Z,15.00
2017-06-03T04:00:25.222Z,15.00
2017-06-03T04:02:51.659Z,15.00
2017-06-03T04:05:18.121Z,15.10
2017-06-03T04:07:44.861Z,15.10
2017-06-03T04:10:11.637Z,15.20
2017-06-03T04:12:38.122Z,15.30
2017-06-03T04:15:04.548Z,15.60
2017-06-03T04:17:30.980Z,16.30
2017-06-03T04:19:57.523Z,16.90
2017-06-03T04:22:23.957Z,17.40
2017-06-03T04:24:51.251Z,17.80
2017-06-03T04:27:17.726Z,17.80
2017-06-03T04:29:44.181Z,18.00
2017-06-03T04:32:10.617Z,18.10
2017-06-03T04:34:38.030Z,18.30
2017-06-03T04:37:04.664Z,18.30
2017-06-03T04:39:31.098Z,18.50
2017-06-03T04:41:58.386Z,18.80
2017-06-03T04:44:24.820Z,18.80
2017-06-03T04:46:52.095Z,19.20
2017-06-03T04:49:19.267Z,19.80
2017-06-03T04:51:45.686Z,19.70
2017-06-03T04:54:12.407Z,20.60
2017-06-03T04:56:38.843Z,21.60
2017-06-03T04:59:06.135Z,23.60
2017-06-03T05:01:32.572Z,23.60
2017-06-03T05:03:59.460Z,24.60
2017-06-03T05:06:26.093Z,25.60
2017-06-03T05:08:52.575Z,26.40
2017-06-03T05:11:19.377Z,27.20
2017-06-03T05:13:46.203Z,28.00
2017-06-03T05:16:12.762Z,28.70
2017-06-03T05:18:39.205Z,29.30
2017-06-03T05:21:05.676Z,29.60
2017-06-03T05:23:32.368Z,30.10
2017-06-03T05:25:58.796Z,30.60
2017-06-03T05:28:25.580Z,31.10
2017-06-03T05:30:52.136Z,31.60
2017-06-03T05:33:18.573Z,32.10
2017-06-03T05:35:45.013Z,32.60
2017-06-03T05:38:12.301Z,33.10
2017-06-03T05:40:38.855Z,33.10
2017-06-03T05:43:05.314Z,33.20
2017-06-03T05:45:31.974Z,33.60
2017-06-03T05:47:58.408Z,34.10
2017-06-03T05:50:24.870Z,34.50
2017-06-03T05:52:51.324Z,35.10
2017-06-03T05:55:18.483Z,35.50
2017-06-03T05:57:44.971Z,35.50
2017-06-03T06:00:11.527Z,35.70
2017-06-03T06:02:38.331Z,36.00
2017-06-03T06:05:04.779Z,36.50
2017-06-03T06:07:31.412Z,36.80
2017-06-03T06:09:57.845Z,37.30
2017-06-03T06:12:25.240Z,37.90
2017-06-03T06:14:51.965Z,37.80
2017-06-03T06:17:18.454Z,38.20
2017-06-03T06:19:45.631Z,38.60
2017-06-03T06:22:12.079Z,38.50
2017-06-03T06:24:39.310Z,38.90
2017-06-03T06:27:05.742Z,38.90
2017-06-03T06:29:32.178Z,39.20
2017-06-03T06:31:58.669Z,39.30
2017-06-03T06:34:25.147Z,39.40
2017-06-03T06:36:51.666Z,39.10
2017-06-03T06:39:18.089Z,39.20
2017-06-03T06:41:45.373Z,39.80
2017-06-03T06:44:12.415Z,39.70
2017-06-03T06:46:39.007Z,39.90
2017-06-03T06:49:05.456Z,39.70
2017-06-03T06:51:32.116Z,39.70
2017-06-03T06:53:58.605Z,40.10
2017-06-03T06:56:25.075Z,40.10
2017-06-03T06:58:51.508Z,40.00
2017-06-03T07:01:17.953Z,39.80
2017-06-03T07:03:44.429Z,39.60
2017-06-03T07:06:10.871Z,39.10
2017-06-03T07:08:37.306Z,38.70
2017-06-03T07:11:04.586Z,39.50
2017-06-03T07:13:31.042Z,39.50
2017-06-03T07:15:57.600Z,40.20
2017-06-03T07:18:24.020Z,40.50
2017-06-03T07:20:50.571Z,40.70
2017-06-03T07:23:17.071Z,40.80
2017-06-03T07:25:43.629Z,41.00
2017-06-03T07:28:10.189Z,41.40
2017-06-03T07:30:36.747Z,41.80
2017-06-03T07:33:03.306Z,42.20
2017-06-03T07:35:29.786Z,42.10
2017-06-03T07:37:56.506Z,41.50
2017-06-03T07:40:23.799Z,41.90
2017-06-03T07:42:50.217Z,41.80
2017-06-03T07:45:16.698Z,41.80
2017-06-03T07:47:43.881Z,41.30
2017-06-03T07:50:10.441Z,41.30
2017-06-03T07:52:36.999Z,41.40
2017-06-03T07:55:03.576Z,41.30
2017-06-03T07:57:30.020Z,41.20
2017-06-03T07:59:56.448Z,40.70
2017-06-03T08:02:23.661Z,39.50
2017-06-03T08:04:50.201Z,39.40
2017-06-03T08:07:16.741Z,38.50
2017-06-03T08:09:43.950Z,37.40
2017-06-03T08:12:10.591Z,37.40
2017-06-03T08:14:37.007Z,37.50
2017-06-03T08:17:03.480Z,37.60
2017-06-03T08:19:29.967Z,37.60
2017-06-03T08:21:56.742Z,37.20
2017-06-03T08:24:23.674Z,36.60
2017-06-03T08:26:50.842Z,34.70
2017-06-03T08:29:17.402Z,34.60
2017-06-03T08:31:44.588Z,33.00
2017-06-03T08:34:12.459Z,32.40
2017-06-03T08:36:39.268Z,32.40
2017-06-03T08:39:05.740Z,32.00
2017-06-03T08:41:32.188Z,31.60
2017-06-03T08:43:58.924Z,31.10
2017-06-03T08:46:25.345Z,30.50
2017-06-03T08:48:51.837Z,30.40
2017-06-03T08:51:18.609Z,30.20
2017-06-03T08:53:45.117Z,30.00
2017-06-03T08:56:11.548Z,29.90
2017-06-03T08:58:38.278Z,29.80
2017-06-03T09:01:04.754Z,29.60
2017-06-03T09:03:31.231Z,29.40
2017-06-03T09:05:58.062Z,29.20
2017-06-03T09:08:24.489Z,29.10
2017-06-03T09:10:51.723Z,29.00
2017-06-03T09:13:18.195Z,28.90
2017-06-03T09:15:44.995Z,28.80
2017-06-03T09:18:12.004Z,28.80
2017-06-03T09:20:39.100Z,28.80
2017-06-03T09:23:05.536Z,28.60
2017-06-03T09:25:32.460Z,28.50
2017-06-03T09:27:58.909Z,28.40
2017-06-03T09:30:26.093Z,28.30
2017-06-03T09:32:52.542Z,28.30
2017-06-03T09:35:19.654Z,28.10
2017-06-03T09:37:46.173Z,28.00
2017-06-03T09:40:12.602Z,28.00
2017-06-03T09:42:39.798Z,27.90
2017-06-03T09:45:06.357Z,27.90
2017-06-03T09:47:32.812Z,28.00
2017-06-03T09:49:59.284Z,27.90
2017-06-03T09:52:25.833Z,27.80
2017-06-03T09:54:52.314Z,27.70
2017-06-03T09:57:18.747Z,27.70
2017-06-03T09:59:45.166Z,27.50
2017-06-03T10:02:11.652Z,27.60
2017-06-03T10:04:38.140Z,27.60
2017-06-03T10:07:04.603Z,27.70
2017-06-03T10:09:31.302Z,27.90
2017-06-03T10:11:57.722Z,28.00
2017-06-03T10:14:24.189Z,28.10
2017-06-03T10:16:50.695Z,28.40
2017-06-03T10:19:17.189Z,28.60
2017-06-03T10:21:43.713Z,28.60
2017-06-03T10:24:10.165Z,28.70
2017-06-03T10:26:36.604Z,28.80
2017-06-03T10:29:03.791Z,28.60
2017-06-03T10:31:30.293Z,28.50
2017-06-03T10:33:57.007Z,28.40
2017-06-03T10:36:24.163Z,28.00
2017-06-03T10:38:50.606Z,28.00
2017-06-03T10:41:17.053Z,27.90
2017-06-03T10:43:43.554Z,27.90
2017-06-03T10:46:10.111Z,27.90
2017-06-03T10:48:36.720Z,28.10
2017-06-03T10:51:03.170Z,28.20
2017-06-03T10:53:29.594Z,28.40
2017-06-03T10:55:56.295Z,28.50
2017-06-03T10:58:22.727Z,28.70
2017-06-03T11:00:49.311Z,28.80
2017-06-03T11:03:16.455Z,29.00
2017-06-03T11:05:42.872Z,28.90
2017-06-03T11:08:10.023Z,28.40
2017-06-03T11:10:36.438Z,28.30
2017-06-03T11:13:02.869Z,28.10
2017-06-03T11:15:29.309Z,28.10
2017-06-03T11:17:56.471Z,28.20
2017-06-03T11:20:23.688Z,28.30
2017-06-03T11:22:50.089Z,28.30
2017-06-03T11:25:16.528Z,28.30
2017-06-03T11:27:42.953Z,28.20
2017-06-03T11:30:09.393Z,27.90
2017-06-03T11:32:35.948Z,27.70
2017-06-03T11:35:02.365Z,27.70
2017-06-03T11:37:28.791Z,27.70
2017-06-03T11:39:55.225Z,27.80
2017-06-03T11:42:21.657Z,27.80
2017-06-03T11:44:48.833Z,28.10
2017-06-03T11:47:16.350Z,28.50
2017-06-03T11:49:43.336Z,28.40
2017-06-03T11:52:09.966Z,28.90
2017-06-03T11:54:36.724Z,29.10
2017-06-03T11:57:03.163Z,29.30
2017-06-03T11:59:30.444Z,29.20
2017-06-03T12:01:57.470Z,29.20
2017-06-03T12:04:24.565Z,29.20
2017-06-03T12:06:52.166Z,29.00
2017-06-03T12:09:18.616Z,29.00
2017-06-03T12:11:45.778Z,29.20
2017-06-03T12:14:12.964Z,29.10
2017-06-03T12:16:39.398Z,29.10
2017-06-03T12:19:06.733Z,29.00
2017-06-03T12:21:33.141Z,29.10
2017-06-03T12:24:00.323Z,28.90
2017-06-03T12:26:26.786Z,28.90
2017-06-03T12:28:53.280Z,28.80
2017-06-03T12:31:19.743Z,28.90
2017-06-03T12:33:46.162Z,28.80
2017-06-03T12:36:13.078Z,28.50
2017-06-03T12:38:39.524Z,28.40
2017-06-03T12:41:06.486Z,28.40
2017-06-03T12:43:32.995Z,28.40
2017-06-03T12:45:59.433Z,28.40
2017-06-03T12:48:26.734Z,28.40
2017-06-03T12:50:53.193Z,28.30
2017-06-03T12:53:19.660Z,28.30
2017-06-03T12:55:46.197Z,28.30
2017-06-03T12:58:12.656Z,28.20
2017-06-03T13:00:39.095Z,28.10
2017-06-03T13:03:06.311Z,27.90
2017-06-03T13:05:32.757Z,27.90
2017-06-03T13:07:59.191Z,27.90
2017-06-03T13:10:26.378Z,28.30
2017-06-03T13:12:52.821Z,28.30
2017-06-03T13:15:19.266Z,28.40
2017-06-03T13:17:46.478Z,28.40
2017-06-03T13:20:13.009Z,28.40
2017-06-03T13:22:39.872Z,28.50
2017-06-03T13:25:06.433Z,28.50
2017-06-03T13:27:32.887Z,28.40
2017-06-03T13:29:59.899Z,28.30
2017-06-03T13:32:26.962Z,28.30
2017-06-03T13:34:53.484Z,28.40
2017-06-03T13:37:19.930Z,28.40
2017-06-03T13:39:47.214Z,28.50
2017-06-03T13:42:13.882Z,28.50
2017-06-03T13:44:40.365Z,28.40
2017-06-03T13:47:07.257Z,28.30
2017-06-03T13:49:33.692Z,28.10
2017-06-03T13:52:00.517Z,27.90
2017-06-03T13:54:27.076Z,27.70
2017-06-03T13:56:53.547Z,27.50
2017-06-03T13:59:19.988Z,27.30
2017-06-03T14:01:46.546Z,27.10
2017-06-03T14:04:13.073Z,26.90
2017-06-03T14:06:39.513Z,26.70
2017-06-03T14:09:05.943Z,26.50
2017-06-03T14:11:32.349Z,26.30
2017-06-03T14:13:59.645Z,25.80
2017-06-03T14:16:26.074Z,25.80
2017-06-03T14:18:53.297Z,25.60
2017-06-03T14:21:19.729Z,25.50
2017-06-03T14:23:46.286Z,25.40
2017-06-03T14:26:12.710Z,25.40
2017-06-03T14:28:39.166Z,25.40
2017-06-03T14:31:05.604Z,25.40
2017-06-03T14:33:32.116Z,25.50
2017-06-03T14:35:58.567Z,25.70
2017-06-03T14:38:25.009Z,25.90
2017-06-03T14:40:52.190Z,26.20
2017-06-03T14:43:19.397Z,26.30
2017-06-03T14:45:45.931Z,26.30
2017-06-03T14:48:12.977Z,26.40
2017-06-03T14:50:40.188Z,26.60
2017-06-03T14:53:06.609Z,26.50
2017-06-03T14:55:33.801Z,26.40
2017-06-03T14:58:00.723Z,26.40
2017-06-03T15:00:27.323Z,26.30
2017-06-03T15:02:53.778Z,26.10
2017-06-03T15:05:20.234Z,26.00
2017-06-03T15:07:46.694Z,25.90
2017-06-03T15:10:13.254Z,25.80
2017-06-03T15:12:39.808Z,25.60
2017-06-03T15:15:06.267Z,25.50
2017-06-03T15:17:32.767Z,25.40
2017-06-03T15:19:59.255Z,25.30
2017-06-03T15:22:25.680Z,25.10
2017-06-03T15:24:52.261Z,24.90
2017-06-03T15:27:18.711Z,24.80
2017-06-03T15:29:45.206Z,24.70
2017-06-03T15:32:11.662Z,24.60
2017-06-03T15:34:38.104Z,24.50
2017-06-03T15:37:05.804Z,24.00
2017-06-03T15:39:32.236Z,23.90
2017-06-03T15:41:59.455Z,23.10
2017-06-03T15:44:25.917Z,23.10
2017-06-03T15:46:52.448Z,22.60
2017-06-03T15:49:18.970Z,22.20
2017-06-03T15:51:45.395Z,21.80
2017-06-03T15:54:12.996Z,21.40
2017-06-03T15:56:39.479Z,21.20
2017-06-03T15:59:07.954Z,20.80
2017-06-03T16:01:36.006Z,20.70
2017-06-03T16:04:02.917Z,20.60
2017-06-03T16:06:41.374Z,20.50
2017-06-03T16:09:08.715Z,20.30
2017-06-03T16:11:35.162Z,20.30
2017-06-03T16:14:01.624Z,20.20
2017-06-03T16:16:28.081Z,20.10
2017-06-03T16:18:54.682Z,20.00
2017-06-03T16:21:21.151Z,20.00
2017-06-03T16:23:48.019Z,19.90
2017-06-03T16:26:14.519Z,19.90
2017-06-03T16:28:41.125Z,19.80
2017-06-03T16:31:07.686Z,19.70
2017-06-03T16:33:34.342Z,19.60
2017-06-03T16:36:00.901Z,19.60
2017-06-03T16:38:27.320Z,19.60
2017-06-03T16:40:53.913Z,19.50
2017-06-03T16:43:20.690Z,19.50
2017-06-03T16:45:47.725Z,19.50
2017-06-03T16:48:16.046Z,19.50
2017-06-03T16:50:42.910Z,19.40
2017-06-03T16:53:09.671Z,19.50
2017-06-03T16:55:37.060Z,19.40
2017-06-03T16:58:03.718Z,19.30
2017-06-03T17:00:30.374Z,19.20
2017-06-03T17:02:57.746Z,19.20
2017-06-03T17:05:25.125Z,19.20
2017-06-03T17:07:51.771Z,19.30
2017-06-03T17:11:59.289Z,19.10
2017-06-03T17:14:25.751Z,19.10
2017-06-03T17:16:52.504Z,19.20
2017-06-03T17:19:19.104Z,19.20
2017-06-03T17:21:45.596Z,19.30
2017-06-03T17:24:13.748Z,19.40
2017-06-03T17:26:40.434Z,19.30
2017-06-03T17:29:07.035Z,19.40
2017-06-03T17:31:33.505Z,19.30
2017-06-03T17:34:00.054Z,19.30
2017-06-03T17:36:27.020Z,19.20
2017-06-03T17:38:53.576Z,19.10
2017-06-03T17:41:20.028Z,18.90
2017-06-03T17:43:47.896Z,18.90
2017-06-03T17:46:14.478Z,18.90
2017-06-03T17:48:41.138Z,18.80
2017-06-03T17:51:07.609Z,18.70
2017-06-03T17:53:34.229Z,18.60
2017-06-03T17:56:00.658Z,18.50
2017-06-03T17:58:27.270Z,18.40
2017-06-03T18:00:53.820Z,18.30
2017-06-03T18:03:20.367Z,18.30
2017-06-03T18:05:48.245Z,18.30
2017-06-03T18:08:14.710Z,18.20
2017-06-03T18:10:42.213Z,18.30
2017-06-03T18:13:09.941Z,18.30
2017-06-03T18:15:37.279Z,18.30
2017-06-03T18:18:03.723Z,18.30
2017-06-03T18:20:30.388Z,18.30
2017-06-03T18:22:57.108Z,18.20
2017-06-03T18:25:23.954Z,18.20
2017-06-03T18:27:50.677Z,18.10
2017-06-03T18:30:17.237Z,18.10
2017-06-03T18:32:44.205Z,18.10
2017-06-03T18:35:11.169Z,18.00
2017-06-03T18:37:37.729Z,18.00
2017-06-03T18:40:04.240Z,17.90
2017-06-03T18:42:30.952Z,17.90
2017-06-03T18:44:57.508Z,17.90
2017-06-03T18:47:24.171Z,17.80
2017-06-03T18:49:50.674Z,17.80
2017-06-03T18:52:17.283Z,17.70
2017-06-03T18:54:43.741Z,17.70
2017-06-03T18:57:10.241Z,17.60
2017-06-03T18:59:36.855Z,17.60
2017-06-03T19:02:03.315Z,17.50
2017-06-03T19:04:29.780Z,17.50
2017-06-03T19:06:56.236Z,17.50
2017-06-03T19:09:23.092Z,17.50
2017-06-03T19:11:49.669Z,17.50
2017-06-03T19:14:16.170Z,17.50
2017-06-03T19:16:43.073Z,17.50
2017-06-03T19:19:09.632Z,17.50
2017-06-03T19:21:36.292Z,17.50
2017-06-03T19:24:02.849Z,17.50
2017-06-03T19:26:29.336Z,17.40
2017-06-03T19:28:55.866Z,17.40
2017-06-03T19:31:22.361Z,17.30
2017-06-03T19:33:49.026Z,17.30
2017-06-03T19:36:15.540Z,17.30
2017-06-03T19:38:42.019Z,17.30
2017-06-03T19:41:08.454Z,17.40
2017-06-03T19:43:35.114Z,17.40
2017-06-03T19:46:01.670Z,17.40
2017-06-03T19:48:28.144Z,17.50
2017-06-03T19:50:55.154Z,17.50
2017-06-03T19:53:22.242Z,17.50
2017-06-03T19:55:49.031Z,17.40
2017-06-03T19:58:15.587Z,17.50
2017-06-03T20:00:42.037Z,17.40
2017-06-03T20:03:09.255Z,17.40
2017-06-03T20:05:35.683Z,17.40
2017-06-03T20:08:02.121Z,17.40
2017-06-03T20:10:29.356Z,17.30
2017-06-03T20:12:55.858Z,17.30
2017-06-03T20:15:22.308Z,17.30
2017-06-03T20:17:49.484Z,17.20
2017-06-03T20:20:16.640Z,17.20
2017-06-03T20:22:43.889Z,17.30
2017-06-03T20:25:10.379Z,17.20
2017-06-03T20:27:37.542Z,17.20
2017-06-03T20:30:04.836Z,17.20
2017-06-03T20:32:31.335Z,17.20
2017-06-03T20:34:58.566Z,17.20
2017-06-03T20:37:25.033Z,17.10
2017-06-03T20:39:51.582Z,17.10
2017-06-03T20:42:18.035Z,17.10
2017-06-03T20:44:44.479Z,17.10
2017-06-03T20:47:11.664Z,16.90
2017-06-03T20:49:38.115Z,16.90
2017-06-03T20:52:05.294Z,16.90
2017-06-03T20:54:31.748Z,16.90
2017-06-03T20:56:58.615Z,16.90
2017-06-03T20:59:25.071Z,16.90
2017-06-03T21:01:51.629Z,17.00
2017-06-03T21:04:18.103Z,17.00
2017-06-03T21:06:44.644Z,17.00
2017-06-03T21:09:11.207Z,17.00
2017-06-03T21:11:37.969Z,17.00
2017-06-03T21:14:04.428Z,16.90
2017-06-03T21:16:31.244Z,16.90
2017-06-03T21:18:57.696Z,16.90
2017-06-03T21:21:24.166Z,16.80
2017-06-03T21:23:50.639Z,16.80
2017-06-03T21:26:17.809Z,16.80
2017-06-03T21:28:44.997Z,16.80
2017-06-03T21:31:11.504Z,16.80
2017-06-03T21:33:38.013Z,16.80
2017-06-03T21:36:04.506Z,16.80
2017-06-03T21:38:30.962Z,16.80
2017-06-03T21:40:57.485Z,16.70
2017-06-03T21:43:24.144Z,16.70
2017-06-03T21:45:50.563Z,16.70
2017-06-03T21:48:17.021Z,16.60
2017-06-03T21:50:43.442Z,16.60
2017-06-03T21:53:09.895Z,16.60
2017-06-03T21:55:36.401Z,16.50
2017-06-03T21:58:03.628Z,16.50
2017-06-03T22:00:30.156Z,16.40
2017-06-03T22:02:56.588Z,16.40
2017-06-03T22:05:23.038Z,16.40
2017-06-03T22:07:49.479Z,16.30
2017-06-03T22:10:15.915Z,16.30
2017-06-03T22:12:42.357Z,16.20
2017-06-03T22:15:08.894Z,16.20
2017-06-03T22:17:35.348Z,16.10
2017-06-03T22:20:01.960Z,16.10
2017-06-03T22:22:28.393Z,16.10
2017-06-03T22:24:54.814Z,16.10
2017-06-03T22:27:21.993Z,16.10
2017-06-03T22:29:48.872Z,16.00
2017-06-03T22:32:15.419Z,16.10
2017-06-03T22:34:41.846Z,16.10
2017-06-03T22:37:08.327Z,16.10
2017-06-03T22:39:34.758Z,16.00
2017-06-03T22:42:01.178Z,16.00
2017-06-03T22:44:27.595Z,16.00
2017-06-03T22:46:54.010Z,16.00
2017-06-03T22:49:20.463Z,16.00
2017-06-03T22:51:46.961Z,16.00
2017-06-03T22:54:13.420Z,16.00
2017-06-03T22:56:39.873Z,15.90
2017-06-03T22:59:06.308Z,15.90
2017-06-03T23:01:32.890Z,15.90
2017-06-03T23:03:59.328Z,15.90
2017-06-03T23:06:26.522Z,15.90
2017-06-03T23:08:53.017Z,15.80
2017-06-03T23:11:19.907Z,15.80
2017-06-03T23:13:46.343Z,15.80
2017-06-03T23:16:12.753Z,15.80
2017-06-03T23:18:39.273Z,15.80
2017-06-03T23:21:05.713Z,15.80
2017-06-03T23:23:32.141Z,15.80
2017-06-03T23:25:58.678Z,15.80
2017-06-03T23:28:25.123Z,15.80
2017-06-03T23:30:52.518Z,15.70
2017-06-03T23:33:18.998Z,15.70
2017-06-03T23:35:46.049Z,15.70
2017-06-03T23:38:12.456Z,15.80
2017-06-03T23:40:38.887Z,15.80
2017-06-03T23:43:05.322Z,15.80
2017-06-03T23:45:31.742Z,15.80
2017-06-03T23:47:58.917Z,15.70
2017-06-03T23:50:26.070Z,15.70
2017-06-03T23:52:53.148Z,15.70
2017-06-03T23:55:22.440Z,15.70
2017-06-03T23:57:48.882Z,15.70
